Time;durP1;ratioP1;P1;durP2;ratioP2;P2;SDS_P1;SDS_P2;PMS_P1;PMS_P2;Temp;Humidity;BMP_temperature;BMP_pressure;BME280_temperature;BME280_humidity;BME280_pressure;Samples;Min_cycle;Max_cycle;Signal;HPM_P1;HPM_P2
2021/07/02 00:02:22;;;;;;;10.98;5.38;;;;;;;13.86;95.37;96844.56;5012541;28;20222;-65
2021/07/02 00:04:47;;;;;;;7.35;4.97;;;;;;;13.84;95.77;96848.88;5034252;28;20095;-65
2021/07/02 00:07:13;;;;;;;9.13;4.63;;;;;;;13.76;95.35;96845.31;5017897;28;20045;-64
2021/07/02 00:09:38;;;;;;;7.90;4.88;;;;;;;13.73;95.42;96843.31;5021348;28;20850;-65
2021/07/02 00:12:04;;;;;;;8.05;4.90;;;;;;;13.66;95.12;96846.78;5018811;28;20097;-63
2021/07/02 00:14:29;;;;;;;9.52;4.88;;;;;;;13.64;95.49;96846.38;5022987;28;20056;-65
2021/07/02 00:16:55;;;;;;;10.35;4.50;;;;;;;13.55;95.01;96846.72;5020318;28;20129;-64
2021/07/02 00:19:22;;;;;;;8.63;4.78;;;;;;;13.53;95.25;96842.78;4989505;28;20038;-65
2021/07/02 00:21:48;;;;;;;9.52;5.38;;;;;;;13.60;95.61;96847.56;5002032;28;20124;-64
2021/07/02 00:24:13;;;;;;;12.90;4.55;;;;;;;13.58;95.78;96839.69;4997434;28;20145;-63
2021/07/02 00:26:39;;;;;;;9.43;4.82;;;;;;;13.36;95.78;96847.78;5003321;28;20514;-64
2021/07/02 00:29:05;;;;;;;13.43;5.35;;;;;;;13.11;96.95;96844.00;4997448;28;20066;-63
2021/07/02 00:31:31;;;;;;;16.08;7.22;;;;;;;12.94;98.02;96834.41;5003374;28;20096;-63
2021/07/02 00:33:56;;;;;;;10.65;6.07;;;;;;;12.92;99.05;96831.25;5002889;28;20104;-63
2021/07/02 00:36:21;;;;;;;11.57;5.63;;;;;;;13.01;99.23;96827.00;4980813;28;20060;-63
2021/07/02 00:38:47;;;;;;;9.57;5.18;;;;;;;13.26;98.28;96825.66;5002002;28;20040;-64
2021/07/02 00:41:12;;;;;;;10.82;5.10;;;;;;;13.42;97.24;96823.44;4998117;28;20042;-64
2021/07/02 00:44:07;;;;;;;9.98;4.95;;;;;;;13.45;96.29;96819.13;5002762;28;20425;-64
2021/07/02 00:46:33;;;;;;;10.65;5.28;;;;;;;13.51;96.53;96823.13;4989455;28;20441;-64
2021/07/02 00:48:58;;;;;;;9.88;4.80;;;;;;;13.54;95.88;96825.09;5001782;28;20042;-64
2021/07/02 00:51:24;;;;;;;7.47;4.75;;;;;;;13.58;95.42;96826.69;4997505;28;20057;-64
2021/07/02 00:53:49;;;;;;;12.55;5.10;;;;;;;13.73;94.27;96821.28;5017119;28;20046;-65
2021/07/02 00:56:18;;;;;;;8.82;5.13;;;;;;;13.83;93.07;96826.06;5014526;28;20125;-63
2021/07/02 00:58:43;;;;;;;8.73;4.85;;;;;;;13.75;93.06;96821.69;5016815;28;20124;-65
2021/07/02 01:01:16;;;;;;;7.88;4.95;;;;;;;13.81;93.29;96831.19;5017345;28;20132;-65
2021/07/02 01:03:43;;;;;;;14.73;5.30;;;;;;;13.81;93.88;96820.16;5025976;28;20572;-64
2021/07/02 01:06:13;;;;;;;7.38;4.43;;;;;;;13.79;94.16;96824.47;5036955;28;20044;-64
2021/07/02 01:08:40;;;;;;;;;;;;;;;13.81;94.02;96820.16;5042006;28;20056;-64
2021/07/02 01:11:07;;;;;;;16.88;5.35;;;;;;;13.85;94.31;96815.47;5014628;28;20370;-62
2021/07/02 01:13:32;;;;;;;9.38;5.93;;;;;;;13.79;93.73;96816.97;5020690;28;20059;-63
2021/07/02 01:15:58;;;;;;;11.50;5.03;;;;;;;13.83;94.58;96823.31;5020747;28;20048;-63
2021/07/02 01:18:23;;;;;;;11.55;5.60;;;;;;;13.90;94.69;96828.06;5032187;28;20553;-64
2021/07/02 01:20:50;;;;;;;8.57;4.88;;;;;;;13.96;94.27;96821.81;5042009;28;20075;-62
2021/07/02 01:23:17;;;;;;;11.02;5.82;;;;;;;13.83;93.77;96817.81;5005281;28;20045;-64
2021/07/02 01:25:42;;;;;;;11.07;5.45;;;;;;;13.80;94.31;96817.78;5019426;28;20558;-63
2021/07/02 01:28:08;;;;;;;11.93;6.00;;;;;;;13.82;93.97;96826.44;5016905;28;20091;-63
2021/07/02 01:30:33;;;;;;;13.27;6.95;;;;;;;13.81;93.56;96822.09;5014731;28;20494;-63
2021/07/02 01:32:59;;;;;;;12.05;6.63;;;;;;;13.76;93.72;96823.28;5019031;28;20456;-65
2021/07/02 01:35:24;;;;;;;13.13;6.80;;;;;;;13.82;93.49;96820.94;5016140;28;20061;-64
2021/07/02 01:37:50;;;;;;;9.70;5.80;;;;;;;13.81;93.76;96816.59;5025111;28;20053;-64
2021/07/02 01:40:15;;;;;;;9.57;5.90;;;;;;;13.77;93.53;96811.88;5016246;28;20037;-63
2021/07/02 01:42:41;;;;;;;16.15;6.45;;;;;;;13.83;93.67;96817.81;5020152;28;20099;-63
2021/07/02 01:45:08;;;;;;;11.30;6.03;;;;;;;13.85;93.44;96809.19;5015392;28;20443;-63
2021/07/02 01:47:33;;;;;;;8.73;5.50;;;;;;;13.86;93.42;96817.03;5022224;28;20053;-64
2021/07/02 01:50:00;;;;;;;10.30;5.70;;;;;;;13.80;93.30;96813.06;5020777;28;20048;-64
2021/07/02 01:52:25;;;;;;;12.20;6.70;;;;;;;13.68;94.02;96816.13;5011378;28;20049;-64
2021/07/02 01:54:51;;;;;;;9.27;5.63;;;;;;;13.56;94.36;96823.53;5018961;28;20622;-64
2021/07/02 01:57:27;;;;;;;10.68;6.10;;;;;;;13.62;95.12;96821.22;5019712;28;20128;-64
2021/07/02 01:59:53;;;;;;;11.20;6.15;;;;;;;13.56;94.38;96820.78;5017469;28;20069;-64
2021/07/02 02:02:19;;;;;;;14.85;6.80;;;;;;;13.46;94.59;96820.72;5013485;28;20044;-64
2021/07/02 02:04:45;;;;;;;9.95;5.28;;;;;;;13.50;95.46;96816.81;5001380;28;20034;-64
2021/07/02 02:07:11;;;;;;;9.73;5.63;;;;;;;13.46;95.25;96817.97;5019388;28;20049;-63
2021/07/02 02:09:36;;;;;;;9.85;5.78;;;;;;;13.52;95.90;96813.69;5028543;28;20560;-65
2021/07/02 02:12:02;;;;;;;11.57;5.90;;;;;;;13.49;95.77;96811.72;5021543;28;20049;-63
2021/07/02 02:14:27;;;;;;;7.43;5.10;;;;;;;13.50;95.60;96816.81;5019583;28;20045;-65
2021/07/02 02:16:53;;;;;;;11.88;5.53;;;;;;;13.52;95.97;96816.44;5018647;28;20045;-63
2021/07/02 02:19:19;;;;;;;14.90;6.25;;;;;;;13.47;95.43;96819.53;5014212;28;20067;-65
2021/07/02 02:24:20;;;;;;;11.35;6.03;;;;;;;12.86;99.40;96816.28;5509436;22;20061;-63
2021/07/02 02:26:45;;;;;;;12.15;6.03;;;;;;;12.62;100.00;96818.41;5029601;28;20425;-63
2021/07/02 02:29:12;;;;;;;11.38;6.00;;;;;;;12.76;100.00;96813.03;5039188;28;20083;-64
2021/07/02 02:31:38;;;;;;;13.02;6.20;;;;;;;12.89;100.00;96816.31;5044494;28;20068;-63
2021/07/02 02:34:04;;;;;;;11.15;5.32;;;;;;;12.87;99.94;96810.38;5038436;28;20445;-64
2021/07/02 02:36:29;;;;;;;13.02;5.93;;;;;;;12.98;99.94;96808.56;5025328;28;20044;-64
2021/07/02 02:38:55;;;;;;;13.75;5.20;;;;;;;13.10;99.19;96820.41;5048380;28;20045;-64
2021/07/02 02:41:20;;;;;;;11.23;5.82;;;;;;;13.13;98.95;96820.44;5036603;28;20037;-64
2021/07/02 02:43:46;;;;;;;12.15;6.43;;;;;;;13.13;98.73;96822.41;5047038;28;20052;-64
2021/07/02 02:46:12;;;;;;;10.23;5.40;;;;;;;13.19;98.36;96823.63;5051240;28;20048;-64
2021/07/02 02:48:38;;;;;;;11.77;5.47;;;;;;;13.24;98.20;96819.75;5059966;28;20041;-64
2021/07/02 02:51:04;;;;;;;12.70;5.10;;;;;;;13.10;98.08;96825.91;5035366;28;20433;-64
2021/07/02 02:53:29;;;;;;;9.40;5.20;;;;;;;13.04;98.48;96827.44;5025539;28;20160;-63
2021/07/02 02:55:55;;;;;;;9.13;5.32;;;;;;;13.07;98.56;96826.66;5051151;28;20455;-62
2021/07/02 02:58:21;;;;;;;10.43;5.28;;;;;;;13.06;98.68;96822.34;5020731;28;20034;-65
2021/07/02 03:00:46;;;;;;;13.85;5.53;;;;;;;12.73;98.52;96822.06;5032599;28;20056;-63
2021/07/02 03:03:12;;;;;;;12.95;5.38;;;;;;;12.63;98.93;96822.75;5017190;28;20486;-64
2021/07/02 03:05:38;;;;;;;12.90;5.97;;;;;;;12.56;100.00;96826.19;5018749;28;20172;-63
2021/07/02 03:08:03;;;;;;;12.30;5.50;;;;;;;12.54;99.81;96822.25;5016407;28;20053;-64
2021/07/02 03:10:29;;;;;;;11.73;5.20;;;;;;;12.63;100.00;96830.97;5020829;28;20052;-64
2021/07/02 03:12:55;;;;;;;15.60;7.25;;;;;;;12.54;99.82;96825.78;5029794;28;20056;-64
2021/07/02 03:15:21;;;;;;;13.25;7.25;;;;;;;12.54;100.00;96836.78;5028889;28;20053;-64
2021/07/02 03:17:47;;;;;;;9.73;5.57;;;;;;;12.63;99.95;96829.00;5047162;28;20045;-63
2021/07/02 03:20:13;;;;;;;9.50;5.60;;;;;;;12.73;99.79;96832.25;5041791;28;20048;-63
2021/07/02 03:22:41;;;;;;;11.73;5.72;;;;;;;12.76;99.49;96824.03;5033792;28;20468;-64
2021/07/02 03:25:07;;;;;;;9.32;4.60;;;;;;;12.84;98.84;96833.16;5049426;28;20068;-65
2021/07/02 03:27:33;;;;;;;10.85;5.90;;;;;;;12.93;98.47;96835.59;5049376;28;20040;-64
2021/07/02 03:29:58;;;;;;;9.55;5.50;;;;;;;12.98;98.06;96836.03;5021382;28;20098;-63
2021/07/02 03:32:24;;;;;;;11.77;5.90;;;;;;;12.90;98.26;96839.09;5047134;28;20072;-65
2021/07/02 03:34:50;;;;;;;13.25;5.50;;;;;;;12.88;97.22;96835.94;5052266;28;20101;-64
2021/07/02 03:37:16;;;;;;;12.15;5.38;;;;;;;12.79;98.08;96839.00;5051988;28;20072;-64
2021/07/02 03:39:42;;;;;;;16.88;5.32;;;;;;;12.90;98.56;96839.09;5063646;28;20052;-64
2021/07/02 03:42:08;;;;;;;17.00;5.60;;;;;;;12.98;98.02;96837.97;5054045;28;20041;-64
2021/07/02 03:44:34;;;;;;;8.20;4.90;;;;;;;13.03;97.45;96848.63;5048190;28;20105;-65
2021/07/02 03:46:59;;;;;;;12.05;5.50;;;;;;;13.07;96.98;96845.91;5047922;28;20049;-64
2021/07/02 03:49:26;;;;;;;8.88;5.90;;;;;;;13.01;97.21;96849.00;5018268;28;20053;-63
2021/07/02 03:51:51;;;;;;;12.52;5.75;;;;;;;12.98;96.23;96852.53;5043624;28;20084;-63
2021/07/02 03:54:17;;;;;;;14.13;5.63;;;;;;;12.85;97.14;96853.19;5051422;28;20119;-63
2021/07/02 03:59:27;;;;;;;13.77;6.25;;;;;;;12.97;97.85;96853.69;5048791;28;20044;-64
2021/07/02 04:01:52;;;;;;;8.70;5.75;;;;;;;13.10;96.89;96856.94;5051157;28;20123;-64
2021/07/02 04:04:18;;;;;;;10.63;4.80;;;;;;;13.21;96.48;96854.28;5053619;28;20063;-64
2021/07/02 04:06:43;;;;;;;13.30;5.85;;;;;;;13.26;96.18;96856.69;5059353;28;20041;-63
2021/07/02 04:09:09;;;;;;;10.70;5.28;;;;;;;13.29;96.00;96850.44;5037180;28;20136;-65
2021/07/02 04:11:35;;;;;;;11.27;5.32;;;;;;;13.33;95.59;96853.25;5062231;28;20040;-64
2021/07/02 04:14:00;;;;;;;16.25;5.10;;;;;;;13.45;95.05;96850.22;5062686;28;20041;-65
2021/07/02 04:16:25;;;;;;;14.43;4.93;;;;;;;13.56;94.56;96848.31;5048692;28;20049;-64
2021/07/02 04:18:51;;;;;;;8.80;4.88;;;;;;;13.68;94.12;96852.69;5051094;28;20041;-64
2021/07/02 04:21:19;;;;;;;9.75;5.25;;;;;;;13.79;93.15;96852.78;4988950;28;20072;-62
2021/07/02 04:23:45;;;;;;;10.30;4.88;;;;;;;13.86;92.49;96855.56;5000912;28;20486;-62
2021/07/02 04:26:10;;;;;;;11.23;5.28;;;;;;;13.94;92.75;96859.16;5012874;28;20131;-62
2021/07/02 04:28:37;;;;;;;11.75;5.22;;;;;;;13.97;91.35;96855.63;5033907;28;20106;-62
2021/07/02 04:31:06;;;;;;;9.90;5.10;;;;;;;13.95;91.72;96861.53;5035309;28;20175;-63
2021/07/02 04:33:32;;;;;;;10.38;4.57;;;;;;;14.14;90.54;96856.91;5026720;28;20165;-61
2021/07/02 04:35:58;;;;;;;11.95;5.32;;;;;;;14.33;89.06;96858.56;5013725;28;20049;-62
2021/07/02 04:38:23;;;;;;;10.30;5.20;;;;;;;14.41;88.09;96860.16;5044279;28;20040;-62
2021/07/02 04:40:48;;;;;;;10.02;4.72;;;;;;;14.69;87.28;96864.22;5049617;28;20148;-65
2021/07/02 04:43:14;;;;;;;10.80;4.90;;;;;;;15.14;85.64;96864.69;5032586;28;20363;-63
2021/07/02 04:45:40;;;;;;;7.15;4.07;;;;;;;15.67;83.04;96868.66;5045769;28;20465;-63
2021/07/02 04:48:05;;;;;;;11.93;4.38;;;;;;;16.11;81.03;96861.88;5043688;28;20051;-63
2021/07/02 04:50:31;;;;;;;19.17;4.78;;;;;;;16.38;78.41;96864.16;5024830;28;20064;-66
2021/07/02 04:52:56;;;;;;;13.38;4.15;;;;;;;16.30;78.81;96865.38;5042142;28;20041;-64
2021/07/02 04:55:22;;;;;;;9.20;4.15;;;;;;;16.19;78.97;96860.69;5036460;28;20053;-64
2021/07/02 04:57:47;;;;;;;6.70;3.92;;;;;;;16.02;79.19;96872.56;5031540;28;20041;-62
2021/07/02 05:00:13;;;;;;;9.63;5.40;;;;;;;15.78;79.46;96876.97;5050773;28;20047;-64
2021/07/02 05:02:39;;;;;;;12.05;5.07;;;;;;;15.88;80.45;96875.34;5051192;28;20041;-63
2021/07/02 05:05:05;;;;;;;7.05;4.93;;;;;;;16.32;78.91;96883.13;5050276;28;20167;-64
2021/07/02 05:07:31;;;;;;;10.30;5.03;;;;;;;16.24;78.23;96878.81;5052486;28;20041;-65
2021/07/02 05:09:57;;;;;;;8.50;4.40;;;;;;;16.09;78.60;96874.53;5061684;28;20499;-64
2021/07/02 05:12:22;;;;;;;8.98;4.53;;;;;;;15.56;80.87;96878.94;5046388;28;20537;-63
2021/07/02 05:14:47;;;;;;;12.35;5.25;;;;;;;15.75;82.20;96874.97;5036658;28;20040;-66
2021/07/02 05:17:13;;;;;;;7.93;4.43;;;;;;;16.78;78.52;96878.59;5040839;28;20559;-64
2021/07/02 05:19:41;;;;;;;11.48;4.00;;;;;;;18.65;70.27;96880.53;5053150;28;20092;-64
2021/07/02 05:22:13;;;;;;;8.52;3.92;;;;;;;20.09;65.13;96872.03;5056183;28;20124;-64
2021/07/02 05:24:38;;;;;;;7.18;4.13;;;;;;;20.89;60.14;96872.06;5060840;28;20044;-64
2021/07/02 05:27:04;;;;;;;11.75;3.85;;;;;;;21.15;58.07;96879.41;5046429;28;20076;-63
2021/07/02 05:29:29;;;;;;;9.27;4.20;;;;;;;20.48;61.06;96879.63;5050894;28;20049;-64
2021/07/02 05:31:55;;;;;;;8.63;4.30;;;;;;;20.13;61.83;96881.88;5048992;28;20045;-64
2021/07/02 05:34:20;;;;;;;10.32;4.40;;;;;;;19.51;63.75;96886.88;5046773;28;20037;-64
2021/07/02 05:36:45;;;;;;;14.18;4.70;;;;;;;19.26;64.75;96890.81;5054153;28;20074;-64
2021/07/02 05:39:11;;;;;;;7.65;4.40;;;;;;;18.97;66.09;96887.69;5043780;28;20056;-64
2021/07/02 05:41:36;;;;;;;10.20;4.43;;;;;;;18.85;66.46;96888.25;5037380;28;20116;-63
2021/07/02 05:44:02;;;;;;;6.38;4.60;;;;;;;18.72;66.74;96897.09;5045809;28;20037;-64
2021/07/02 05:46:29;;;;;;;12.38;4.60;;;;;;;18.60;67.36;96903.22;5047676;28;20052;-64
2021/07/02 05:48:55;;;;;;;7.72;4.60;;;;;;;18.37;67.07;96903.09;5052680;28;20506;-63
2021/07/02 05:51:21;;;;;;;7.97;4.75;;;;;;;18.27;68.17;96891.69;5021174;28;20671;-64
2021/07/02 05:53:46;;;;;;;8.13;5.07;;;;;;;18.37;68.33;96898.31;5048198;28;20048;-64
2021/07/02 05:56:11;;;;;;;11.10;5.38;;;;;;;18.17;69.44;96897.34;5051832;28;20394;-65
2021/07/02 05:58:37;;;;;;;7.88;5.15;;;;;;;18.43;69.28;96895.88;5060082;28;20044;-65
2021/07/02 06:01:02;;;;;;;10.07;4.75;;;;;;;18.42;67.88;96897.06;5058885;28;20086;-64
2021/07/02 06:03:27;;;;;;;10.02;5.75;;;;;;;17.92;68.67;96896.41;5050559;28;20053;-64
2021/07/02 06:05:53;;;;;;;9.60;4.97;;;;;;;17.90;70.95;96903.56;5050030;28;20045;-64
2021/07/02 06:08:18;;;;;;;12.40;5.00;;;;;;;18.62;66.95;96898.03;5036089;28;20159;-64
2021/07/02 06:10:44;;;;;;;8.20;5.07;;;;;;;18.75;66.04;96905.81;5037010;28;20064;-64
2021/07/02 06:13:09;;;;;;;10.13;5.53;;;;;;;18.58;67.40;96899.25;5032623;28;20040;-65
2021/07/02 06:15:34;;;;;;;7.70;4.63;;;;;;;18.41;68.83;96901.84;5042710;28;20045;-68
2021/07/02 06:18:05;;;;;;;8.82;4.85;;;;;;;18.39;68.63;96909.78;5047489;28;20055;-65
2021/07/02 06:20:31;;;;;;;9.70;4.78;;;;;;;20.03;64.28;96899.53;5048228;28;20036;-66
2021/07/02 06:22:56;;;;;;;9.20;4.88;;;;;;;21.69;57.17;96902.47;5049382;28;20045;-65
2021/07/02 06:25:22;;;;;;;11.95;5.20;;;;;;;21.23;57.27;96905.13;5033110;28;20788;-65
2021/07/02 06:27:47;;;;;;;8.45;4.85;;;;;;;22.44;54.34;96908.13;5051629;28;20044;-66
2021/07/02 06:30:13;;;;;;;10.00;5.03;;;;;;;24.04;52.17;96903.72;5042949;28;20206;-64
2021/07/02 06:32:39;;;;;;;13.23;4.85;;;;;;;25.55;46.01;96906.59;5035289;28;20045;-65
2021/07/02 06:35:05;;;;;;;6.60;4.47;;;;;;;26.31;43.56;96916.28;5036103;28;20040;-65
2021/07/02 06:37:30;;;;;;;8.00;4.50;;;;;;;25.08;47.57;96916.78;5039862;28;20107;-63
2021/07/02 06:39:56;;;;;;;6.78;4.20;;;;;;;25.66;44.59;96920.97;5046713;28;20055;-63
2021/07/02 06:42:21;;;;;;;6.25;4.05;;;;;;;26.74;41.81;96922.09;5037139;28;20868;-64
2021/07/02 06:44:46;;;;;;;8.05;4.63;;;;;;;26.79;40.96;96918.63;5051243;28;20428;-65
2021/07/02 06:47:12;;;;;;;11.98;4.72;;;;;;;26.29;41.08;96929.25;5043372;28;20079;-65
2021/07/02 06:49:39;;;;;;;7.30;4.80;;;;;;;25.58;43.13;96921.72;5039164;28;20029;-65
2021/07/02 06:52:07;;;;;;;8.13;4.05;;;;;;;25.03;45.28;96925.81;5042852;28;20048;-63
2021/07/02 06:54:32;;;;;;;7.07;5.10;;;;;;;23.03;50.49;96922.78;5046629;28;20045;-65
2021/07/02 06:57:00;;;;;;;11.38;5.05;;;;;;;23.91;48.71;96928.13;5054448;28;20047;-66
2021/07/02 06:59:27;;;;;;;9.73;4.70;;;;;;;24.68;46.56;96933.50;5049750;28;20071;-65
2021/07/02 07:01:54;;;;;;;7.60;4.70;;;;;;;25.35;44.47;96932.22;5042330;28;20136;-65
2021/07/02 07:04:20;;;;;;;8.43;4.82;;;;;;;25.00;44.10;96930.28;5042852;28;20037;-64
2021/07/02 07:06:45;;;;;;;8.73;5.03;;;;;;;25.28;44.61;96930.47;5039952;28;20052;-64
2021/07/02 07:09:10;;;;;;;14.90;5.20;;;;;;;25.29;45.62;96925.66;5042554;28;20492;-65
2021/07/02 07:11:36;;;;;;;7.35;5.00;;;;;;;25.14;46.39;96928.19;5045475;28;20388;-65
2021/07/02 07:14:01;;;;;;;11.38;5.50;;;;;;;25.18;45.60;96940.03;5048088;28;20068;-62
2021/07/02 07:16:27;;;;;;;9.77;5.38;;;;;;;26.00;43.75;96927.66;5041392;28;20048;-65
2021/07/02 07:18:52;;;;;;;16.13;5.95;;;;;;;26.33;42.92;96935.47;5055681;28;20078;-66
2021/07/02 07:21:17;;;;;;;10.25;4.70;;;;;;;27.27;41.82;96932.16;5040948;28;20045;-64
2021/07/02 07:23:43;;;;;;;9.27;5.57;;;;;;;26.38;43.71;96939.69;5052656;28;20052;-64
2021/07/02 07:26:09;;;;;;;8.45;5.35;;;;;;;26.79;40.78;96937.53;5039081;28;20068;-65
2021/07/02 07:28:34;;;;;;;9.60;5.40;;;;;;;26.19;42.74;96936.09;5052877;28;20072;-64
2021/07/02 07:30:59;;;;;;;8.80;4.82;;;;;;;26.18;43.33;96942.94;5049153;28;20037;-65
2021/07/02 07:33:25;;;;;;;9.40;5.65;;;;;;;26.06;42.96;96948.22;5018749;28;20038;-63
2021/07/02 07:35:51;;;;;;;9.88;5.75;;;;;;;25.19;45.20;96944.41;5037325;28;20041;-63
2021/07/02 07:38:18;;;;;;;9.45;5.20;;;;;;;24.78;47.31;96943.53;5052510;28;20097;-65
2021/07/02 07:40:44;;;;;;;8.70;5.07;;;;;;;25.27;44.65;96948.53;5064082;28;20139;-66
2021/07/02 07:43:10;;;;;;;9.23;5.25;;;;;;;26.53;41.67;96949.06;5056676;28;20684;-65
2021/07/02 07:45:35;;;;;;;10.13;5.18;;;;;;;26.92;40.79;96940.97;5050046;28;20053;-65
2021/07/02 07:48:01;;;;;;;9.13;4.95;;;;;;;26.65;41.72;96936.91;5052121;28;20102;-65
2021/07/02 07:50:29;;;;;;;9.65;5.40;;;;;;;26.05;42.56;96945.88;5039673;28;20509;-63
2021/07/02 07:52:58;;;;;;;7.15;4.75;;;;;;;25.62;44.10;96939.94;5043863;28;20051;-66
2021/07/02 07:55:25;;;;;;;9.95;6.05;;;;;;;24.73;45.54;96941.31;5035680;28;20130;-64
2021/07/02 07:57:50;;;;;;;10.68;6.10;;;;;;;23.78;48.39;96936.50;5035652;28;20048;-64
2021/07/02 08:00:16;;;;;;;10.85;6.00;;;;;;;23.60;49.57;96937.06;5033776;28;20056;-64
2021/07/02 08:02:44;;;;;;;11.13;6.65;;;;;;;23.75;49.94;96934.59;5041718;28;20049;-64
2021/07/02 08:05:10;;;;;;;14.27;5.70;;;;;;;23.84;47.83;96927.13;5035248;28;20045;-64
2021/07/02 08:07:36;;;;;;;11.55;6.63;;;;;;;22.89;50.04;96938.75;5041622;28;20443;-64
2021/07/02 08:10:10;;;;;;;10.23;5.90;;;;;;;24.30;46.88;96935.19;5040974;28;20104;-64
2021/07/02 08:12:35;;;;;;;13.57;6.13;;;;;;;24.43;47.37;96935.94;5040788;28;20048;-62
2021/07/02 08:15:02;;;;;;;12.23;5.90;;;;;;;24.08;47.00;96935.13;5043634;28;20039;-65
2021/07/02 08:17:30;;;;;;;10.95;6.45;;;;;;;23.75;48.20;96935.41;5044274;28;20119;-63
2021/07/02 08:19:57;;;;;;;10.57;5.68;;;;;;;22.83;51.50;96937.75;5040481;28;20163;-63
2021/07/02 08:22:24;;;;;;;11.32;6.00;;;;;;;23.47;49.81;96934.28;5036357;28;20124;-65
2021/07/02 08:24:49;;;;;;;13.88;6.32;;;;;;;23.44;49.50;96937.97;5041954;28;20045;-64
2021/07/02 08:27:15;;;;;;;11.50;5.60;;;;;;;23.33;49.91;96929.13;5035320;28;20048;-64
2021/07/02 08:29:40;;;;;;;9.57;6.07;;;;;;;22.66;50.60;96942.59;5047862;28;20055;-63
2021/07/02 08:32:06;;;;;;;13.88;5.95;;;;;;;23.01;51.08;96939.22;5033895;28;20041;-62
2021/07/02 08:34:31;;;;;;;9.13;5.75;;;;;;;23.18;49.06;96946.31;5038627;28;20492;-62
2021/07/02 08:36:58;;;;;;;7.13;4.78;;;;;;;22.61;49.95;96945.91;5049048;28;20055;-63
2021/07/02 08:39:23;;;;;;;7.75;5.50;;;;;;;22.65;50.03;96943.84;5033572;28;20053;-63
2021/07/02 08:41:48;;;;;;;10.30;4.50;;;;;;;22.30;50.99;96943.56;5043175;28;20048;-62
2021/07/02 08:44:16;;;;;;;11.20;5.80;;;;;;;22.08;50.73;96943.31;5038714;28;20882;-62
2021/07/02 08:46:44;;;;;;;8.90;5.00;;;;;;;22.19;50.67;96945.06;5044270;28;20057;-63
2021/07/02 08:49:10;;;;;;;10.00;5.20;;;;;;;21.46;53.99;96950.78;5039754;28;20408;-64
2021/07/02 08:51:36;;;;;;;11.45;5.88;;;;;;;22.23;52.31;96942.94;5039355;28;20110;-63
2021/07/02 08:54:01;;;;;;;9.18;5.30;;;;;;;23.10;49.93;96942.16;5047274;28;20045;-63
2021/07/02 08:56:27;;;;;;;11.15;6.57;;;;;;;23.79;46.61;96944.44;5039019;28;20059;-64
2021/07/02 08:58:52;;;;;;;8.88;5.45;;;;;;;23.43;47.84;96936.41;5040466;28;20041;-65
2021/07/02 09:01:34;;;;;;;7.80;4.60;;;;;;;23.06;47.94;96945.06;5013024;28;20460;-64
2021/07/02 09:04:26;;;;;;;10.23;5.13;;;;;;;23.57;46.61;96938.75;5040538;28;20040;-64
2021/07/02 09:07:06;;;;;;;10.55;5.70;;;;;;;23.68;47.68;96941.22;5037432;28;20445;-64
2021/07/02 09:09:54;;;;;;;10.60;4.80;;;;;;;23.77;44.29;96946.91;5041139;28;20048;-64
2021/07/02 09:12:21;;;;;;;7.72;4.18;;;;;;;23.90;42.39;96935.72;5037110;28;20048;-64
2021/07/02 09:15:04;;;;;;;6.95;3.90;;;;;;;24.11;40.51;96931.44;5040884;28;20351;-63
2021/07/02 09:17:31;;;;;;;7.38;4.50;;;;;;;23.27;43.68;96940.09;5021959;28;20054;-64
2021/07/02 09:20:15;;;;;;;6.05;3.95;;;;;;;23.77;43.01;96932.13;5036469;28;20108;-63
2021/07/02 09:22:41;;;;;;;7.15;4.15;;;;;;;23.98;41.60;96933.47;5039186;28;20045;-65
2021/07/02 09:25:25;;;;;;;8.15;4.22;;;;;;;23.54;43.85;96928.47;5033316;28;20358;-65
2021/07/02 09:27:53;;;;;;;7.85;4.10;;;;;;;24.31;42.71;96931.16;5036556;28;20045;-63
2021/07/02 09:30:24;;;;;;;6.55;3.95;;;;;;;24.45;42.06;96926.28;5032397;28;20099;-64
2021/07/02 09:32:52;;;;;;;7.15;3.85;;;;;;;24.43;43.33;96935.13;5036405;28;20520;-64
2021/07/02 09:35:19;;;;;;;6.60;4.30;;;;;;;24.99;41.26;96941.94;5027281;28;20041;-65
2021/07/02 09:37:51;;;;;;;5.75;3.70;;;;;;;24.66;41.43;96933.16;5037938;28;20114;-64
2021/07/02 09:40:26;;;;;;;8.65;4.53;;;;;;;24.01;43.63;96946.56;5040692;28;20083;-64
2021/07/02 09:43:07;;;;;;;7.47;4.47;;;;;;;24.41;41.67;96935.56;5023010;28;20071;-63
2021/07/02 09:45:43;;;;;;;8.35;4.32;;;;;;;24.68;42.54;96939.09;5042544;28;20122;-62
2021/07/02 09:48:10;;;;;;;5.70;3.85;;;;;;;24.54;41.71;96929.19;5034094;28;20048;-64
2021/07/02 09:50:57;;;;;;;8.98;5.68;;;;;;;24.39;41.23;96938.06;5040231;28;20040;-65
2021/07/02 09:53:25;;;;;;;10.25;4.70;;;;;;;25.20;40.46;96934.75;5033395;28;20504;-63
2021/07/02 09:55:55;;;;;;;6.57;3.55;;;;;;;25.82;39.32;96935.97;5028253;28;20129;-65
2021/07/02 09:58:26;;;;;;;7.80;4.25;;;;;;;26.02;39.16;96935.56;5037618;28;20048;-65
2021/07/02 10:00:55;;;;;;;6.95;4.03;;;;;;;25.75;38.75;96937.84;5039486;28;20382;-64
2021/07/02 10:03:26;;;;;;;7.55;4.03;;;;;;;24.73;42.00;96941.31;5036262;28;20080;-64
2021/07/02 10:05:55;;;;;;;10.15;4.00;;;;;;;24.54;41.92;96931.97;5036614;28;20136;-65
2021/07/02 10:08:26;;;;;;;8.05;4.00;;;;;;;24.13;42.32;96937.38;5034512;28;20481;-65
2021/07/02 10:10:53;;;;;;;7.32;4.45;;;;;;;23.91;41.97;96936.50;5040282;28;20068;-64
2021/07/02 10:13:22;;;;;;;6.30;4.05;;;;;;;23.88;41.88;96931.81;5036662;28;20385;-64
2021/07/02 10:15:49;;;;;;;8.38;3.97;;;;;;;24.61;39.95;96929.72;5044876;28;20045;-64
2021/07/02 10:18:16;;;;;;;4.32;3.20;;;;;;;25.01;39.90;96933.84;5044654;28;20041;-64
2021/07/02 10:20:43;;;;;;;6.07;3.63;;;;;;;25.27;40.77;96931.72;5041865;28;20453;-63
2021/07/02 10:23:11;;;;;;;8.15;4.53;;;;;;;24.72;40.94;96923.75;5030297;28;20129;-64
2021/07/02 10:25:39;;;;;;;6.60;3.75;;;;;;;24.89;40.24;96931.94;5038809;28;21402;-63
2021/07/02 10:28:05;;;;;;;5.25;3.75;;;;;;;24.03;40.20;96921.72;5036069;28;20572;-62
2021/07/02 10:30:31;;;;;;;6.63;3.72;;;;;;;24.53;41.19;96919.22;5042357;28;20045;-63
2021/07/02 10:32:59;;;;;;;6.53;3.47;;;;;;;24.68;41.47;96917.47;5017650;28;20041;-64
2021/07/02 10:35:28;;;;;;;5.95;3.45;;;;;;;25.14;39.60;96925.41;5031793;28;20462;-64
2021/07/02 10:37:59;;;;;;;6.47;3.90;;;;;;;24.74;40.57;96914.84;5038242;28;20041;-63
2021/07/02 10:40:34;;;;;;;6.80;3.88;;;;;;;24.49;40.99;96912.94;5037425;28;20053;-65
2021/07/02 10:43:11;;;;;;;5.75;4.18;;;;;;;24.66;41.83;96919.94;5039498;28;20041;-66
2021/07/02 10:45:38;;;;;;;6.90;3.55;;;;;;;24.64;41.09;96922.41;5038457;28;20063;-64
2021/07/02 10:48:04;;;;;;;6.60;3.88;;;;;;;24.70;38.71;96923.38;5034608;28;20103;-63
2021/07/02 10:50:46;;;;;;;6.40;3.60;;;;;;;24.67;40.52;96926.31;5021115;28;20049;-65
2021/07/02 10:53:25;;;;;;;5.28;3.42;;;;;;;25.03;39.19;96920.19;5032492;28;20160;-64
2021/07/02 10:55:52;;;;;;;6.75;3.83;;;;;;;25.16;39.38;96920.09;5042917;28;20203;-64
2021/07/02 10:58:20;;;;;;;5.53;3.95;;;;;;;24.49;41.04;96919.34;5033829;28;20120;-66
2021/07/02 11:01:07;;;;;;;5.90;3.50;;;;;;;24.17;39.27;96909.25;5037023;28;20037;-63
2021/07/02 11:03:33;;;;;;;5.68;3.42;;;;;;;24.36;38.27;96911.00;5037375;28;20045;-65
2021/07/02 11:06:27;;;;;;;5.00;3.22;;;;;;;24.58;39.73;96922.22;5036544;28;20063;-65
2021/07/02 11:08:53;;;;;;;5.05;3.35;;;;;;;24.53;38.39;96920.00;5043043;28;20068;-65
2021/07/02 11:11:18;;;;;;;5.82;3.33;;;;;;;24.37;39.04;96911.75;5035580;28;20075;-64
2021/07/02 11:14:07;;;;;;;6.82;3.13;;;;;;;24.39;38.43;96917.69;5042947;28;20044;-65
2021/07/02 11:16:32;;;;;;;5.83;3.30;;;;;;;24.45;39.66;96915.84;5040366;28;20041;-64
2021/07/02 11:19:27;;;;;;;6.15;3.72;;;;;;;24.54;38.58;96913.19;5039185;28;20048;-66
2021/07/02 11:22:28;;;;;;;6.53;3.40;;;;;;;24.54;38.63;96913.19;5037252;28;20041;-65
2021/07/02 11:25:14;;;;;;;5.28;3.03;;;;;;;24.21;39.75;96919.09;5037990;28;20045;-66
2021/07/02 11:27:53;;;;;;;5.13;3.03;;;;;;;24.30;39.20;96903.63;5032127;28;20713;-64
2021/07/02 11:30:35;;;;;;;6.38;3.53;;;;;;;24.65;38.39;96917.59;5033342;28;20489;-64
2021/07/02 11:33:07;;;;;;;5.50;3.38;;;;;;;24.78;37.20;96912.72;5038481;28;20052;-65
2021/07/02 11:35:36;;;;;;;4.20;2.97;;;;;;;24.87;38.36;96912.78;5049453;28;20048;-64
2021/07/02 11:38:04;;;;;;;6.40;3.20;;;;;;;24.82;37.53;96918.19;5045383;28;20112;-64